New Bedford, Pennsylvania
Current Conditions -  °F | °C
As of 8:51 PM on Friday 24 Oct 2014 (Local Time) from KYNG Reporting Station
Few Clouds Few Clouds  
Wind Chill: 49°   Ceiling: Unl
Heat Index: 49°   Visibility: 10mi
Dew Point: 38°   Wind: 0mph
Humidity: 66%   Direction: NA
Pressure: 30"   Gusts: NA
Location:  41.1°N, 80.5°W
Report Text: KYNG 250051Z 00000KT 10SM FEW250 09/03 A3000 RMK AO2 SLP165 T00940033 $
Loading
Personal Weather Stations






























Interactive Weather Map
Tropical Storm Tracking
New forecast layout! Learn more

10-Day Weather Forecast

Advertisements
Track Severe Weather on mobile